createdAt,value
2018-07-02T00:00:57.295Z,24.84
2018-07-02T00:03:28.069Z,24.82
2018-07-02T00:06:14.872Z,24.70
2018-07-02T00:08:45.537Z,24.67
2018-07-02T00:11:16.192Z,24.76
2018-07-02T00:13:46.943Z,24.72
2018-07-02T00:16:17.732Z,24.70
2018-07-02T00:18:48.517Z,24.69
2018-07-02T00:21:19.251Z,24.52
2018-07-02T00:23:50.042Z,24.58
2018-07-02T00:26:20.745Z,24.54
2018-07-02T00:28:51.542Z,24.44
2018-07-02T00:31:25.837Z,24.42
2018-07-02T00:33:56.453Z,24.41
2018-07-02T00:36:27.166Z,24.07
2018-07-02T00:38:57.952Z,24.08
2018-07-02T00:41:28.601Z,24.25
2018-07-02T00:43:59.513Z,24.38
2018-07-02T00:46:30.217Z,24.45
2018-07-02T00:49:01.018Z,24.40
2018-07-02T00:51:31.144Z,24.26
2018-07-02T00:54:02.274Z,23.93
2018-07-02T00:56:32.898Z,24.37
2018-07-02T00:59:03.894Z,24.70
2018-07-02T01:01:34.572Z,24.91
2018-07-02T01:04:05.241Z,25.01
2018-07-02T01:06:35.986Z,25.16
2018-07-02T01:09:09.573Z,25.05
2018-07-02T01:11:40.421Z,24.92
2018-07-02T01:14:11.365Z,24.81
2018-07-02T01:16:41.965Z,24.91
2018-07-02T01:19:13.035Z,24.50
2018-07-02T01:21:43.715Z,24.34
2018-07-02T01:24:14.689Z,23.97
2018-07-02T01:26:45.378Z,23.49
2018-07-02T01:29:16.019Z,23.54
2018-07-02T01:31:46.252Z,23.73
2018-07-02T01:34:16.937Z,23.81
2018-07-02T01:36:47.501Z,23.67
2018-07-02T01:39:18.281Z,23.66
2018-07-02T01:41:48.953Z,23.62
2018-07-02T01:44:19.713Z,23.65
2018-07-02T01:46:50.485Z,23.72
2018-07-02T01:49:21.266Z,23.70
2018-07-02T01:51:52.006Z,23.72
2018-07-02T01:54:22.772Z,23.94
2018-07-02T01:56:53.513Z,24.03
2018-07-02T01:59:24.497Z,24.06
2018-07-02T02:01:55.237Z,23.96
2018-07-02T02:04:25.945Z,23.83
2018-07-02T02:06:56.657Z,23.95
2018-07-02T02:09:27.388Z,23.78
2018-07-02T02:11:58.047Z,23.97
2018-07-02T02:14:28.870Z,23.79
2018-07-02T02:16:59.629Z,23.92
2018-07-02T02:19:30.574Z,23.99
2018-07-02T02:22:01.473Z,24.02
2018-07-02T02:24:32.342Z,23.69
2018-07-02T02:27:02.883Z,23.83
2018-07-02T02:29:33.748Z,23.86
2018-07-02T02:32:04.525Z,23.98
2018-07-02T02:34:35.278Z,23.78
2018-07-02T02:37:06.029Z,23.58
2018-07-02T02:39:37.028Z,23.59
2018-07-02T02:42:07.898Z,23.60
2018-07-02T02:44:38.673Z,23.66
2018-07-02T02:47:09.326Z,23.63
2018-07-02T02:49:40.366Z,23.84
2018-07-02T02:52:10.893Z,23.63
2018-07-02T02:54:41.825Z,23.78
2018-07-02T02:57:12.618Z,24.04
2018-07-02T02:59:43.461Z,24.00
2018-07-02T03:02:14.257Z,23.17
2018-07-02T03:04:45.048Z,23.11
2018-07-02T03:07:15.629Z,23.00
2018-07-02T03:09:46.520Z,23.20
2018-07-02T03:12:17.253Z,23.28
2018-07-02T03:14:48.114Z,23.54
2018-07-02T03:17:18.765Z,23.61
2018-07-02T03:19:49.724Z,23.61
2018-07-02T03:22:20.381Z,23.51
2018-07-02T03:24:51.078Z,23.58
2018-07-02T03:27:21.715Z,23.53
2018-07-02T03:29:52.581Z,23.47
2018-07-02T03:32:23.233Z,23.51
2018-07-02T03:34:53.969Z,23.52
2018-07-02T03:37:24.663Z,23.56
2018-07-02T03:39:55.428Z,23.37
2018-07-02T03:42:26.066Z,23.41
2018-07-02T03:44:56.797Z,23.53
2018-07-02T03:47:27.501Z,23.52
2018-07-02T03:49:58.526Z,23.78
2018-07-02T03:52:29.353Z,23.81
2018-07-02T03:55:00.200Z,23.87
2018-07-02T03:57:30.936Z,23.98
2018-07-02T04:00:01.976Z,24.00
2018-07-02T04:02:32.705Z,24.10
2018-07-02T04:05:03.280Z,24.05
2018-07-02T04:07:33.967Z,24.15
2018-07-02T04:10:04.753Z,24.17
2018-07-02T04:12:35.657Z,24.18
2018-07-02T04:15:06.971Z,23.97
2018-07-02T04:17:37.541Z,24.23
2018-07-02T04:20:08.431Z,24.50
2018-07-02T04:22:39.078Z,24.44
2018-07-02T04:25:09.854Z,24.53
2018-07-02T04:27:40.550Z,24.54
2018-07-02T04:30:11.245Z,24.60
2018-07-02T04:32:41.877Z,24.84
2018-07-02T04:35:12.994Z,24.77
2018-07-02T04:37:43.616Z,24.88
2018-07-02T04:40:14.730Z,25.01
2018-07-02T04:42:45.435Z,25.36
2018-07-02T04:45:16.292Z,25.35
2018-07-02T04:47:47.842Z,25.31
2018-07-02T04:50:17.738Z,25.56
2018-07-02T04:52:48.450Z,25.84
2018-07-02T04:55:19.297Z,26.27
2018-07-02T04:57:50.071Z,26.67
2018-07-02T05:00:20.742Z,27.03
2018-07-02T05:02:51.521Z,27.23
2018-07-02T05:05:22.468Z,27.60
2018-07-02T05:07:53.125Z,27.90
2018-07-02T05:10:23.825Z,28.08
2018-07-02T05:12:54.622Z,28.19
2018-07-02T05:15:25.575Z,28.19
2018-07-02T05:17:56.214Z,28.55
2018-07-02T05:20:27.094Z,28.57
2018-07-02T05:22:57.713Z,28.78
2018-07-02T05:25:28.529Z,29.22
2018-07-02T05:27:59.138Z,29.14
2018-07-02T05:30:29.844Z,29.04
2018-07-02T05:33:00.546Z,29.25
2018-07-02T05:35:31.289Z,29.24
2018-07-02T05:38:02.063Z,29.59
2018-07-02T05:40:32.801Z,29.68
2018-07-02T05:43:03.556Z,30.09
2018-07-02T05:45:34.266Z,30.01
2018-07-02T05:48:04.954Z,29.66
2018-07-02T05:50:35.718Z,29.54
2018-07-02T05:53:06.357Z,29.88
2018-07-02T05:55:37.001Z,30.10
2018-07-02T05:58:07.282Z,30.26
2018-07-02T06:00:38.098Z,30.27
2018-07-02T06:03:08.729Z,30.29
2018-07-02T06:05:39.421Z,30.66
2018-07-02T06:08:11.241Z,30.06
2018-07-02T06:10:41.761Z,29.77
2018-07-02T06:13:12.425Z,29.85
2018-07-02T06:15:43.225Z,30.67
2018-07-02T06:18:13.856Z,30.85
2018-07-02T06:20:44.758Z,31.52
2018-07-02T06:23:15.474Z,30.40
2018-07-02T06:25:45.993Z,30.89
2018-07-02T06:28:16.853Z,31.01
2018-07-02T06:30:48.134Z,30.77
2018-07-02T06:33:18.810Z,31.41
2018-07-02T06:35:49.669Z,31.63
2018-07-02T06:38:20.232Z,31.57
2018-07-02T06:40:50.906Z,31.66
2018-07-02T06:43:21.585Z,31.78
2018-07-02T06:45:52.377Z,32.12
2018-07-02T06:48:23.127Z,31.65
2018-07-02T06:50:54.004Z,31.93
2018-07-02T06:53:24.646Z,32.25
2018-07-02T06:55:55.610Z,32.85
2018-07-02T06:58:26.382Z,31.11
2018-07-02T07:00:57.097Z,30.05
2018-07-02T07:03:27.774Z,31.03
2018-07-02T07:05:58.270Z,30.62
2018-07-02T07:08:29.051Z,31.25
2018-07-02T07:11:00.181Z,30.49
2018-07-02T07:13:30.919Z,30.95
2018-07-02T07:16:01.613Z,31.34
2018-07-02T07:18:32.326Z,31.09
2018-07-02T07:21:02.981Z,31.23
2018-07-02T07:23:33.638Z,31.04
2018-07-02T07:26:04.415Z,31.53
2018-07-02T07:28:35.276Z,32.54
2018-07-02T07:31:05.988Z,31.58
2018-07-02T07:33:36.674Z,31.19
2018-07-02T07:36:07.367Z,30.81
2018-07-02T07:38:37.923Z,31.17
2018-07-02T07:41:08.590Z,32.52
2018-07-02T07:43:39.213Z,32.28
2018-07-02T07:46:10.269Z,32.31
2018-07-02T07:48:40.806Z,31.60
2018-07-02T07:51:11.822Z,31.94
2018-07-02T07:53:42.322Z,30.73
2018-07-02T07:56:13.103Z,31.22
2018-07-02T07:58:43.785Z,32.63
2018-07-02T08:01:15.566Z,32.17
2018-07-02T08:03:45.812Z,32.74
2018-07-02T08:06:16.941Z,31.39
2018-07-02T08:08:47.621Z,30.58
2018-07-02T08:11:18.394Z,31.67
2018-07-02T08:13:49.090Z,32.44
2018-07-02T08:16:19.901Z,31.43
2018-07-02T08:18:50.695Z,32.18
2018-07-02T08:21:21.511Z,32.99
2018-07-02T08:23:52.282Z,33.94
2018-07-02T08:26:23.352Z,33.34
2018-07-02T08:28:54.100Z,33.62
2018-07-02T08:31:26.779Z,34.12
2018-07-02T08:33:57.337Z,33.16
2018-07-02T08:36:28.064Z,34.14
2018-07-02T08:38:58.709Z,34.49
2018-07-02T08:41:29.446Z,35.09
2018-07-02T08:44:00.065Z,34.66
2018-07-02T08:46:30.827Z,34.02
2018-07-02T08:49:01.562Z,34.00
2018-07-02T08:51:33.589Z,33.65
2018-07-02T08:54:04.313Z,33.69
2018-07-02T08:56:34.877Z,33.29
2018-07-02T08:59:05.678Z,32.34
2018-07-02T09:01:36.411Z,33.25
2018-07-02T09:04:07.131Z,33.09
2018-07-02T09:06:37.753Z,32.99
2018-07-02T09:09:11.741Z,32.90
2018-07-02T09:11:42.765Z,32.89
2018-07-02T09:14:13.522Z,33.12
2018-07-02T09:16:44.117Z,32.71
2018-07-02T09:19:15.120Z,33.15
2018-07-02T09:21:46.170Z,33.19
2018-07-02T09:24:16.834Z,33.19
2018-07-02T09:26:47.734Z,33.81
2018-07-02T09:29:19.616Z,34.08
2018-07-02T09:31:50.349Z,34.07
2018-07-02T09:34:21.030Z,34.00
2018-07-02T09:36:51.974Z,35.76
2018-07-02T09:39:22.608Z,35.24
2018-07-02T09:41:53.381Z,34.71
2018-07-02T09:44:24.114Z,34.47
2018-07-02T09:46:54.941Z,35.35
2018-07-02T09:49:25.536Z,35.68
2018-07-02T09:51:56.221Z,35.19
2018-07-02T09:54:26.950Z,33.66
2018-07-02T09:56:57.690Z,34.46
2018-07-02T09:59:28.374Z,35.10
2018-07-02T10:02:00.309Z,34.59
2018-07-02T10:04:30.853Z,34.85
2018-07-02T10:07:01.706Z,34.59
2018-07-02T10:09:32.425Z,33.69
2018-07-02T10:12:03.150Z,33.57
2018-07-02T10:14:33.871Z,33.60
2018-07-02T10:17:04.830Z,33.81
2018-07-02T10:19:35.453Z,33.87
2018-07-02T10:22:06.277Z,33.56
2018-07-02T10:24:37.091Z,33.94
2018-07-02T10:27:08.030Z,33.82
2018-07-02T10:29:38.790Z,33.77
2018-07-02T10:32:09.517Z,33.64
2018-07-02T10:34:40.192Z,34.50
2018-07-02T10:37:11.153Z,35.70
2018-07-02T10:39:41.881Z,36.26
2018-07-02T10:42:12.667Z,36.65
2018-07-02T10:44:43.217Z,35.93
2018-07-02T10:47:14.272Z,35.14
2018-07-02T10:49:45.088Z,35.27
2018-07-02T10:52:16.104Z,35.50
2018-07-02T10:54:46.749Z,35.60
2018-07-02T10:57:17.919Z,35.08
2018-07-02T10:59:48.033Z,35.52
2018-07-02T11:02:18.894Z,35.50
2018-07-02T11:04:49.767Z,35.26
2018-07-02T11:07:20.474Z,36.17
2018-07-02T11:09:51.229Z,35.62
2018-07-02T11:12:21.997Z,34.26
2018-07-02T11:14:52.769Z,34.28
2018-07-02T11:17:23.814Z,35.15
2018-07-02T11:19:54.791Z,35.48
2018-07-02T11:22:25.464Z,35.21
2018-07-02T11:24:56.314Z,35.42
2018-07-02T11:27:26.942Z,35.82
2018-07-02T11:29:57.875Z,37.13
2018-07-02T11:32:28.679Z,36.80
2018-07-02T11:34:59.629Z,36.65
2018-07-02T11:37:30.268Z,36.50
2018-07-02T11:40:01.046Z,36.45
2018-07-02T11:42:31.735Z,36.36
2018-07-02T11:45:02.657Z,36.61
2018-07-02T11:47:33.397Z,34.95
2018-07-02T11:50:04.664Z,34.94
2018-07-02T11:52:35.422Z,34.44
2018-07-02T11:55:05.749Z,34.50
2018-07-02T11:57:36.439Z,34.97
2018-07-02T12:00:09.041Z,34.75
2018-07-02T12:02:40.153Z,34.94
2018-07-02T12:05:10.983Z,35.61
2018-07-02T12:07:41.447Z,35.22
2018-07-02T12:10:12.110Z,35.22
2018-07-02T12:12:42.798Z,36.08
2018-07-02T12:15:13.659Z,35.30
2018-07-02T12:17:44.247Z,36.43
2018-07-02T12:20:15.241Z,35.72
2018-07-02T12:22:46.023Z,36.35
2018-07-02T12:25:16.705Z,35.44
2018-07-02T12:27:47.484Z,35.25
2018-07-02T12:30:18.274Z,34.95
2018-07-02T12:32:49.002Z,35.19
2018-07-02T12:35:20.202Z,35.08
2018-07-02T12:37:50.645Z,35.54
2018-07-02T12:40:21.450Z,36.04
2018-07-02T12:42:52.025Z,36.09
2018-07-02T12:45:24.012Z,34.89
2018-07-02T12:47:55.776Z,35.11
2018-07-02T12:50:26.904Z,35.34
2018-07-02T12:52:57.644Z,36.40
2018-07-02T12:55:28.430Z,36.37
2018-07-02T12:57:59.101Z,37.06
2018-07-02T13:00:29.945Z,37.49
2018-07-02T13:03:00.573Z,37.15
2018-07-02T13:05:31.589Z,37.03
2018-07-02T13:08:02.258Z,37.02
2018-07-02T13:10:33.545Z,35.92
2018-07-02T13:13:04.159Z,37.03
2018-07-02T13:15:34.773Z,36.23
2018-07-02T13:18:05.751Z,35.86
2018-07-02T13:20:36.547Z,36.37
2018-07-02T13:23:07.327Z,36.51
2018-07-02T13:25:38.066Z,36.14
2018-07-02T13:28:08.738Z,36.89
2018-07-02T13:30:39.474Z,36.50
2018-07-02T13:33:10.204Z,36.54
2018-07-02T13:35:40.946Z,36.03
2018-07-02T13:38:12.566Z,36.02
2018-07-02T13:40:43.538Z,37.82
2018-07-02T13:43:14.162Z,36.94
2018-07-02T13:45:44.994Z,37.26
2018-07-02T13:48:15.801Z,36.48
2018-07-02T13:50:46.775Z,37.42
2018-07-02T13:53:17.511Z,37.12
2018-07-02T13:55:48.614Z,35.83
2018-07-02T13:58:19.273Z,35.39
2018-07-02T14:00:49.965Z,36.67
2018-07-02T14:03:20.698Z,36.15
2018-07-02T14:05:51.469Z,36.14
2018-07-02T14:08:22.191Z,36.67
2018-07-02T14:10:52.930Z,36.37
2018-07-02T14:13:23.621Z,37.27
2018-07-02T14:15:54.620Z,36.76
2018-07-02T14:18:25.175Z,37.02
2018-07-02T14:20:55.897Z,37.64
2018-07-02T14:23:26.624Z,37.03
2018-07-02T14:25:57.329Z,36.83
2018-07-02T14:28:28.288Z,36.65
2018-07-02T14:30:59.018Z,35.81
2018-07-02T14:33:29.805Z,36.16
2018-07-02T14:37:29.843Z,36.53
2018-07-02T14:40:00.437Z,36.91
2018-07-02T14:42:31.209Z,37.79
2018-07-02T14:45:02.114Z,37.06
2018-07-02T14:47:32.731Z,36.33
2018-07-02T14:50:03.458Z,36.95
2018-07-02T14:52:34.253Z,36.61
2018-07-02T14:55:05.073Z,36.58
2018-07-02T14:57:35.705Z,37.03
2018-07-02T15:00:07.093Z,36.93
2018-07-02T15:02:37.606Z,35.85
2018-07-02T15:05:08.347Z,35.62
2018-07-02T15:07:39.037Z,36.74
2018-07-02T15:10:09.374Z,37.73
2018-07-02T15:12:40.113Z,37.73
2018-07-02T15:15:10.797Z,36.73
2018-07-02T15:17:41.763Z,37.19
2018-07-02T15:20:12.498Z,36.79
2018-07-02T15:22:43.246Z,36.77
2018-07-02T15:25:13.958Z,37.30
2018-07-02T15:27:44.738Z,38.35
2018-07-02T15:30:15.377Z,38.16
2018-07-02T15:32:46.462Z,38.75
2018-07-02T15:35:17.218Z,37.48
2018-07-02T15:37:48.186Z,37.11
2018-07-02T15:40:18.811Z,36.09
2018-07-02T15:42:49.779Z,35.91
2018-07-02T15:45:20.490Z,35.49
2018-07-02T15:47:51.005Z,36.46
2018-07-02T15:50:21.770Z,36.03
2018-07-02T15:52:54.906Z,36.59
2018-07-02T15:55:28.654Z,36.27
2018-07-02T15:57:59.233Z,36.67
2018-07-02T16:00:29.745Z,36.74
2018-07-02T16:03:00.558Z,36.74
2018-07-02T16:05:30.693Z,36.75
2018-07-02T16:08:01.677Z,36.23
2018-07-02T16:10:32.403Z,36.50
2018-07-02T16:13:03.410Z,36.91
2018-07-02T16:15:34.125Z,36.91
2018-07-02T16:18:05.013Z,36.69
2018-07-02T16:20:35.850Z,36.61
2018-07-02T16:23:06.361Z,36.09
2018-07-02T16:25:37.021Z,36.57
2018-07-02T16:28:08.505Z,36.20
2018-07-02T16:30:39.235Z,35.73
2018-07-02T16:33:10.131Z,35.73
2018-07-02T16:35:40.888Z,35.73
2018-07-02T16:38:11.794Z,35.92
2018-07-02T16:40:42.386Z,35.94
2018-07-02T16:43:13.090Z,36.11
2018-07-02T16:45:43.794Z,35.93
2018-07-02T16:48:14.574Z,36.18
2018-07-02T16:50:45.268Z,36.16
2018-07-02T16:53:16.891Z,35.91
2018-07-02T16:55:47.548Z,35.50
2018-07-02T16:58:18.360Z,35.68
2018-07-02T17:00:49.065Z,35.51
2018-07-02T17:03:20.031Z,35.29
2018-07-02T17:05:50.704Z,35.24
2018-07-02T17:08:21.784Z,35.05
2018-07-02T17:10:52.462Z,35.19
2018-07-02T17:13:23.294Z,35.38
2018-07-02T17:15:53.933Z,35.34
2018-07-02T17:18:24.710Z,35.21
2018-07-02T17:20:55.278Z,34.96
2018-07-02T17:23:26.066Z,34.75
2018-07-02T17:25:57.473Z,34.65
2018-07-02T17:28:28.687Z,34.52
2018-07-02T17:30:59.353Z,34.33
2018-07-02T17:33:30.115Z,34.15
2018-07-02T17:36:00.841Z,33.93
2018-07-02T17:38:31.801Z,33.86
2018-07-02T17:41:02.474Z,33.61
2018-07-02T17:43:33.202Z,33.48
2018-07-02T17:46:03.881Z,33.32
2018-07-02T17:48:34.480Z,33.07
2018-07-02T17:51:05.135Z,32.93
2018-07-02T17:53:35.995Z,32.77
2018-07-02T17:56:06.729Z,32.59
2018-07-02T17:58:37.489Z,32.65
2018-07-02T18:01:08.329Z,32.47
2018-07-02T18:03:38.854Z,32.21
2018-07-02T18:06:09.635Z,32.17
2018-07-02T18:08:40.309Z,32.18
2018-07-02T18:11:10.978Z,32.17
2018-07-02T18:13:41.789Z,32.14
2018-07-02T18:16:12.454Z,32.10
2018-07-02T18:18:43.206Z,31.94
2018-07-02T18:21:13.938Z,31.82
2018-07-02T18:23:44.885Z,31.66
2018-07-02T18:26:15.582Z,31.61
2018-07-02T18:28:46.698Z,31.47
2018-07-02T18:31:17.360Z,31.44
2018-07-02T18:33:48.065Z,31.44
2018-07-02T18:36:18.733Z,31.42
2018-07-02T18:38:49.545Z,31.35
2018-07-02T18:41:20.185Z,31.25
2018-07-02T18:43:50.926Z,31.15
2018-07-02T18:46:21.832Z,31.12
2018-07-02T18:48:52.677Z,31.01
2018-07-02T18:51:23.342Z,30.96
2018-07-02T18:53:54.031Z,30.93
2018-07-02T18:56:24.806Z,30.89
2018-07-02T18:58:55.421Z,30.55
2018-07-02T19:01:26.162Z,30.51
2018-07-02T19:03:57.234Z,30.17
2018-07-02T19:06:27.990Z,30.36
2018-07-02T19:08:58.862Z,30.32
2018-07-02T19:11:29.585Z,30.26
2018-07-02T19:14:00.365Z,30.24
2018-07-02T19:16:31.240Z,30.07
2018-07-02T19:19:02.065Z,29.89
2018-07-02T19:21:32.334Z,29.83
2018-07-02T19:24:03.204Z,29.83
2018-07-02T19:26:33.813Z,29.72
2018-07-02T19:29:04.686Z,29.58
2018-07-02T19:31:35.438Z,29.66
2018-07-02T19:34:06.295Z,29.54
2018-07-02T19:36:36.919Z,29.60
2018-07-02T19:39:13.818Z,29.61
2018-07-02T19:41:44.577Z,29.76
2018-07-02T19:44:15.365Z,29.66
2018-07-02T19:46:45.990Z,29.48
2018-07-02T19:49:16.673Z,29.54
2018-07-02T19:51:47.206Z,29.45
2018-07-02T19:54:17.949Z,29.11
2018-07-02T19:56:48.805Z,29.19
2018-07-02T19:59:19.810Z,29.23
2018-07-02T20:01:50.590Z,29.01
2018-07-02T20:04:21.463Z,29.04
2018-07-02T20:06:52.111Z,29.08
2018-07-02T20:09:22.937Z,29.01
2018-07-02T20:11:53.694Z,28.97
2018-07-02T20:14:24.616Z,28.93
2018-07-02T20:16:55.232Z,28.89
2018-07-02T20:19:25.902Z,28.79
2018-07-02T20:21:56.209Z,28.94
2018-07-02T20:24:27.077Z,28.90
2018-07-02T20:26:57.832Z,28.94
2018-07-02T20:29:28.531Z,28.95
2018-07-02T20:31:59.303Z,29.03
2018-07-02T20:34:29.983Z,29.03
2018-07-02T20:37:00.822Z,28.88
2018-07-02T20:39:31.706Z,28.97
2018-07-02T20:42:02.389Z,28.92
2018-07-02T20:44:33.489Z,28.89
2018-07-02T20:47:04.015Z,29.09
2018-07-02T20:49:34.707Z,29.19
2018-07-02T20:52:05.475Z,29.12
2018-07-02T20:54:36.326Z,29.13
2018-07-02T20:57:07.231Z,29.10
2018-07-02T20:59:38.010Z,28.97
2018-07-02T21:02:08.671Z,29.06
2018-07-02T21:04:39.446Z,29.00
2018-07-02T21:07:10.093Z,29.10
2018-07-02T21:09:40.922Z,29.19
2018-07-02T21:12:11.558Z,29.23
2018-07-02T21:14:42.245Z,29.15
2018-07-02T21:17:12.417Z,29.42
2018-07-02T21:19:43.206Z,29.33
2018-07-02T21:22:13.918Z,29.36
2018-07-02T21:24:45.521Z,29.43
2018-07-02T21:27:16.102Z,29.48
2018-07-02T21:29:46.587Z,29.50
2018-07-02T21:32:17.253Z,29.39
2018-07-02T21:34:47.998Z,29.35
2018-07-02T21:37:18.726Z,29.27
2018-07-02T21:39:49.114Z,29.17
2018-07-02T21:42:19.736Z,29.09
2018-07-02T21:44:50.417Z,28.96
2018-07-02T21:47:21.149Z,28.87
2018-07-02T21:49:51.524Z,28.77
2018-07-02T21:52:22.319Z,28.66
2018-07-02T21:54:53.373Z,28.52
2018-07-02T21:57:24.117Z,28.44
2018-07-02T21:59:54.817Z,28.08
2018-07-02T22:02:25.607Z,27.35
2018-07-02T22:04:56.310Z,27.05
2018-07-02T22:07:27.125Z,27.41
2018-07-02T22:09:57.949Z,27.18
2018-07-02T22:12:28.642Z,27.04
2018-07-02T22:14:59.321Z,26.96
2018-07-02T22:17:30.115Z,26.81
2018-07-02T22:20:00.893Z,26.84
2018-07-02T22:22:31.674Z,26.95
2018-07-02T22:25:02.453Z,26.97
2018-07-02T22:27:33.039Z,27.10
2018-07-02T22:30:04.348Z,27.16
2018-07-02T22:32:35.037Z,27.20
2018-07-02T22:35:08.050Z,27.21
2018-07-02T22:37:38.572Z,27.50
2018-07-02T22:40:09.510Z,27.57
2018-07-02T22:42:40.162Z,27.59
2018-07-02T22:45:10.986Z,27.50
2018-07-02T22:47:41.593Z,27.47
2018-07-02T22:50:12.393Z,27.35
2018-07-02T22:52:42.965Z,27.31
2018-07-02T22:55:13.638Z,27.31
2018-07-02T22:57:44.309Z,27.14
2018-07-02T23:00:15.229Z,27.24
2018-07-02T23:02:45.875Z,27.05
2018-07-02T23:05:16.753Z,27.17
2018-07-02T23:07:47.336Z,27.19
2018-07-02T23:10:18.157Z,27.16
2018-07-02T23:12:48.825Z,27.12
2018-07-02T23:15:19.570Z,27.16
2018-07-02T23:17:50.321Z,27.06
2018-07-02T23:20:21.111Z,27.08
2018-07-02T23:23:00.137Z,27.10
2018-07-02T23:25:31.191Z,27.10
2018-07-02T23:28:02.734Z,27.19
2018-07-02T23:30:34.305Z,27.26
2018-07-02T23:33:04.852Z,27.23
2018-07-02T23:35:35.615Z,27.12
2018-07-02T23:38:06.251Z,27.03
2018-07-02T23:40:36.938Z,27.05
2018-07-02T23:43:07.701Z,27.01
2018-07-02T23:45:38.423Z,26.82
2018-07-02T23:48:09.126Z,26.81
2018-07-02T23:50:39.937Z,26.86
2018-07-02T23:53:10.629Z,26.96
2018-07-02T23:55:41.518Z,26.92
2018-07-02T23:58:12.134Z,26.84
